Time;durP1;ratioP1;P1;durP2;ratioP2;P2;SDS_P1;SDS_P2;PMS_P1;PMS_P2;Temp;Humidity;BMP_temperature;BMP_pressure;BME280_temperature;BME280_humidity;BME280_pressure;Samples;Min_cycle;Max_cycle;Signal;HPM_P1;HPM_P2
2021/04/08 00:01:43;;;;;;;;;;;2.00;91.50;;;;;;5090318;28;19916;-73
2021/04/08 00:04:11;;;;;;;;;;;2.00;91.60;;;;;;5109126;27;19920;-74
2021/04/08 00:06:37;;;;;;;;;;;2.00;92.90;;;;;;5091869;28;20007;-74
2021/04/08 00:09:03;;;;;;;;;;;2.00;92.10;;;;;;5092987;28;20032;-73
2021/04/08 00:11:33;;;;;;;;;;;2.00;91.70;;;;;;5090974;28;19970;-74
2021/04/08 00:14:01;;;;;;;;;;;1.90;92.00;;;;;;5091558;28;20281;-74
2021/04/08 00:16:27;;;;;;;;;;;1.90;93.40;;;;;;5090384;28;19920;-74
2021/04/08 00:18:52;;;;;;;;;;;1.90;92.70;;;;;;5087694;28;20448;-73
2021/04/08 00:21:18;;;;;;;;;;;1.80;93.10;;;;;;5088850;28;19977;-74
2021/04/08 00:23:43;;;;;;;;;;;1.90;92.90;;;;;;5097157;28;19916;-73
2021/04/08 00:26:09;;;;;;;;;;;1.90;92.50;;;;;;5090147;28;19924;-74
2021/04/08 00:28:37;;;;;;;;;;;1.90;92.60;;;;;;5090479;28;19920;-74
2021/04/08 00:31:03;;;;;;;;;;;1.90;94.20;;;;;;5092433;28;20361;-74
2021/04/08 00:33:28;;;;;;;;;;;1.90;92.90;;;;;;5095734;28;19917;-74
2021/04/08 00:35:54;;;;;;;;;;;1.90;92.20;;;;;;5091524;28;20416;-73
2021/04/08 00:38:19;;;;;;;;;;;1.90;92.80;;;;;;5091592;28;20498;-74
2021/04/08 00:40:45;;;;;;;;;;;1.90;93.20;;;;;;5089614;28;20386;-74
2021/04/08 00:43:10;;;;;;;;;;;1.90;93.60;;;;;;5077431;28;20021;-74
2021/04/08 00:45:36;;;;;;;;;;;1.90;93.40;;;;;;5091303;28;20003;-74
2021/04/08 00:48:06;;;;;;;;;;;1.90;94.40;;;;;;5087229;28;19924;-74
2021/04/08 00:50:32;;;;;;;;;;;1.90;94.00;;;;;;5089230;28;20076;-74
2021/04/08 00:53:07;;;;;;;;;;;1.90;93.10;;;;;;5092383;28;20771;-74
2021/04/08 00:55:36;;;;;;;;;;;1.90;94.30;;;;;;5087074;28;19920;-74
2021/04/08 00:58:05;;;;;;;;;;;1.90;94.40;;;;;;5105461;27;20359;-74
2021/04/08 01:00:33;;;;;;;;;;;1.90;94.10;;;;;;5076840;28;20471;-74
2021/04/08 01:02:59;;;;;;;;;;;1.90;93.50;;;;;;5076805;28;21645;-74
2021/04/08 01:05:24;;;;;;;;;;;1.90;93.90;;;;;;5076452;28;19917;-74
2021/04/08 01:07:53;;;;;;;;;;;2.00;94.60;;;;;;5076537;28;19920;-74
2021/04/08 01:10:19;;;;;;;;;;;1.90;93.80;;;;;;5074578;28;19941;-74
2021/04/08 01:12:45;;;;;;;;;;;1.90;95.90;;;;;;5087580;28;19921;-74
2021/04/08 01:15:11;;;;;;;;;;;1.90;94.90;;;;;;5077184;28;20626;-74
2021/04/08 01:17:39;;;;;;;;;;;1.90;93.70;;;;;;5073682;28;19982;-74
2021/04/08 01:20:11;;;;;;;;;;;2.00;94.70;;;;;;5091234;27;19934;-74
2021/04/08 01:22:42;;;;;;;;;;;2.00;95.10;;;;;;5076130;28;19920;-74
2021/04/08 01:25:27;;;;;;;;;;;1.90;94.80;;;;;;5076312;28;19945;-74
2021/04/08 01:28:01;;;;;;;;;;;1.90;96.10;;;;;;5091652;27;20297;-75
2021/04/08 01:30:30;;;;;;;;;;;1.90;94.50;;;;;;5076944;28;19920;-74
2021/04/08 01:32:56;;;;;;;;;;;1.90;94.00;;;;;;5091658;27;19916;-75
2021/04/08 01:35:24;;;;;;;;;;;1.90;94.50;;;;;;5086710;28;19923;-75
2021/04/08 01:37:52;;;;;;;;;;;1.90;93.90;;;;;;5086661;28;19931;-75
2021/04/08 01:40:18;;;;;;;;;;;1.80;94.40;;;;;;5075708;28;20549;-75
2021/04/08 01:42:45;;;;;;;;;;;1.80;95.30;;;;;;5076821;28;19920;-75
2021/04/08 01:45:10;;;;;;;;;;;1.70;94.10;;;;;;5086992;28;19956;-75
2021/04/08 01:47:38;;;;;;;;;;;1.70;95.80;;;;;;5076971;28;19959;-75
2021/04/08 01:50:06;;;;;;;;;;;1.70;95.00;;;;;;5076717;28;20304;-75
2021/04/08 01:52:32;;;;;;;;;;;1.70;96.00;;;;;;5074368;28;19916;-75
2021/04/08 01:54:58;;;;;;;;;;;1.70;95.70;;;;;;5075968;28;20361;-75
2021/04/08 01:57:24;;;;;;;;;;;1.70;95.30;;;;;;5092072;27;20415;-75
2021/04/08 01:59:52;;;;;;;;;;;1.70;95.10;;;;;;5091396;27;19920;-75
2021/04/08 02:02:20;;;;;;;;;;;1.80;96.20;;;;;;5091723;28;19989;-74
2021/04/08 02:04:45;;;;;;;;;;;1.80;95.30;;;;;;5085784;28;19947;-76
2021/04/08 02:07:13;;;;;;;;;;;1.80;95.70;;;;;;5075435;28;20371;-76
2021/04/08 02:09:41;;;;;;;;;;;1.80;96.30;;;;;;5077145;28;21878;-76
2021/04/08 02:12:07;;;;;;;;;;;1.80;96.70;;;;;;5075066;28;19920;-76
2021/04/08 02:14:34;;;;;;;;;;;1.70;97.30;;;;;;5075858;28;21808;-76
2021/04/08 02:16:59;;;;;;;;;;;1.70;97.40;;;;;;5082161;28;19922;-77
2021/04/08 02:19:25;;;;;;;;;;;1.60;98.90;;;;;;5070532;28;19928;-77
2021/04/08 02:21:51;;;;;;;;;;;1.60;99.40;;;;;;5076638;28;19991;-76
2021/04/08 02:24:16;;;;;;;;;;;1.50;99.80;;;;;;5074172;28;19977;-76
2021/04/08 02:26:42;;;;;;;;;;;1.50;99.90;;;;;;5075377;28;20036;-76
2021/04/08 02:29:08;;;;;;;;;;;1.50;99.90;;;;;;5073774;28;19916;-76
2021/04/08 02:31:33;;;;;;;;;;;1.40;99.90;;;;;;5078437;28;20019;-76
2021/04/08 02:33:59;;;;;;;;;;;1.40;99.90;;;;;;5073034;28;19924;-76
2021/04/08 02:36:24;;;;;;;;;;;1.30;99.90;;;;;;5075422;28;19920;-76
2021/04/08 02:38:52;;;;;;;;;;;1.30;99.90;;;;;;5090457;28;19978;-77
2021/04/08 02:41:18;;;;;;;;;;;1.40;99.90;;;;;;5076354;28;20373;-76
2021/04/08 02:43:46;;;;;;;;;;;1.30;99.90;;;;;;5076483;28;19916;-77
2021/04/08 02:46:11;;;;;;;;;;;1.30;99.90;;;;;;5075295;28;19916;-77
2021/04/08 02:48:37;;;;;;;;;;;1.20;99.90;;;;;;5075561;28;19920;-77
2021/04/08 02:51:05;;;;;;;;;;;1.20;99.90;;;;;;5076107;28;19916;-79
2021/04/08 02:53:39;;;;;;;;;;;1.20;99.90;;;;;;5085924;28;20366;-77
2021/04/08 02:56:09;;;;;;;;;;;1.10;99.90;;;;;;5075163;28;19932;-76
2021/04/08 02:58:34;;;;;;;;;;;1.10;99.90;;;;;;5077012;28;19987;-77
2021/04/08 03:01:00;;;;;;;;;;;1.20;99.90;;;;;;5077925;28;20513;-77
2021/04/08 03:03:52;;;;;;;;;;;1.10;99.90;;;;;;5085770;28;20315;-76
2021/04/08 03:06:18;;;;;;;;;;;1.10;99.90;;;;;;5072415;28;19927;-77
2021/04/08 03:08:45;;;;;;;;;;;1.10;99.90;;;;;;5090158;28;20415;-77
2021/04/08 03:11:11;;;;;;;;;;;1.10;99.90;;;;;;5068257;28;20514;-76
2021/04/08 03:13:36;;;;;;;;;;;1.10;99.90;;;;;;5072507;28;19916;-77
2021/04/08 03:16:04;;;;;;;;;;;1.10;99.90;;;;;;5069536;28;19931;-77
2021/04/08 03:18:29;;;;;;;;;;;1.10;99.90;;;;;;5074820;28;19989;-77
2021/04/08 03:20:55;;;;;;;;;;;1.10;99.90;;;;;;5073171;28;20609;-77
2021/04/08 03:23:21;;;;;;;;;;;1.10;99.90;;;;;;5074423;28;19911;-77
2021/04/08 03:25:50;;;;;;;;;;;1.10;99.90;;;;;;5081675;28;19920;-77
2021/04/08 03:28:15;;;;;;;;;;;1.10;99.90;;;;;;5076230;28;20037;-77
2021/04/08 03:30:44;;;;;;;;;;;1.10;99.90;;;;;;5086986;28;20428;-77
2021/04/08 03:33:09;;;;;;;;;;;1.10;99.90;;;;;;5074757;28;19931;-77
2021/04/08 03:35:38;;;;;;;;;;;1.10;99.90;;;;;;5089810;28;19921;-77
2021/04/08 03:38:04;;;;;;;;;;;1.20;99.90;;;;;;5058955;28;19924;-77
2021/04/08 03:40:32;;;;;;;;;;;1.30;99.90;;;;;;5087371;28;19920;-77
2021/04/08 03:43:00;;;;;;;;;;;1.40;99.90;;;;;;5079438;28;19927;-77
2021/04/08 03:45:25;;;;;;;;;;;1.40;99.90;;;;;;5089431;28;20061;-77
2021/04/08 03:47:53;;;;;;;;;;;1.40;99.90;;;;;;5077227;28;19924;-76
2021/04/08 03:50:19;;;;;;;;;;;1.40;99.90;;;;;;5077847;28;19931;-77
2021/04/08 03:52:44;;;;;;;;;;;1.30;99.90;;;;;;5076787;28;19966;-76
2021/04/08 03:55:10;;;;;;;;;;;1.40;99.90;;;;;;5094010;27;19920;-76
2021/04/08 03:57:38;;;;;;;;;;;1.40;99.90;;;;;;5094047;27;19920;-76
2021/04/08 04:00:05;;;;;;;;;;;1.40;99.90;;;;;;5080608;28;19926;-76
2021/04/08 04:02:30;;;;;;;;;;;1.40;99.90;;;;;;5084409;28;19920;-76
2021/04/08 04:04:56;;;;;;;;;;;1.30;99.90;;;;;;5077671;28;20648;-77
2021/04/08 04:07:21;;;;;;;;;;;1.40;99.90;;;;;;5092672;27;19955;-77
2021/04/08 04:09:47;;;;;;;;;;;1.40;99.90;;;;;;5076762;28;19924;-77
2021/04/08 04:12:13;;;;;;;;;;;1.50;99.90;;;;;;5075941;28;20341;-78
2021/04/08 04:14:40;;;;;;;;;;;1.50;99.90;;;;;;5078501;28;21755;-76
2021/04/08 04:17:17;;;;;;;;;;;1.50;99.90;;;;;;5079682;28;20003;-77
2021/04/08 04:19:43;;;;;;;;;;;1.60;99.90;;;;;;5075355;28;19935;-79
2021/04/08 04:22:08;;;;;;;;;;;1.70;99.90;;;;;;5077216;28;20170;-77
2021/04/08 04:24:34;;;;;;;;;;;1.60;99.90;;;;;;5078931;28;19917;-77
2021/04/08 04:27:02;;;;;;;;;;;1.60;99.90;;;;;;5076507;28;19943;-77
2021/04/08 04:29:27;;;;;;;;;;;1.60;99.90;;;;;;5076978;28;19926;-77
2021/04/08 04:31:53;;;;;;;;;;;1.60;99.90;;;;;;5077716;28;19916;-78
2021/04/08 04:34:18;;;;;;;;;;;1.60;99.90;;;;;;5089142;28;19950;-78
2021/04/08 04:36:44;;;;;;;;;;;1.60;99.90;;;;;;5077185;28;19973;-78
2021/04/08 04:39:09;;;;;;;;;;;1.50;99.90;;;;;;5076750;28;19923;-78
2021/04/08 04:41:38;;;;;;;;;;;1.60;99.90;;;;;;5083972;28;19916;-78
2021/04/08 04:44:03;;;;;;;;;;;1.60;99.90;;;;;;5076576;28;19981;-77
2021/04/08 04:46:29;;;;;;;;;;;1.60;99.90;;;;;;5077424;28;19928;-79
2021/04/08 04:48:57;;;;;;;;;;;1.60;99.90;;;;;;5077035;28;19925;-78
2021/04/08 04:51:23;;;;;;;;;;;1.60;99.90;;;;;;5061147;28;20501;-78
2021/04/08 04:53:48;;;;;;;;;;;1.60;99.90;;;;;;5087576;28;19920;-77
2021/04/08 04:56:14;;;;;;;;;;;1.70;99.90;;;;;;5078428;28;20352;-77
2021/04/08 04:58:41;;;;;;;;;;;1.70;99.90;;;;;;5075974;28;20623;-77
2021/04/08 05:01:07;;;;;;;;;;;1.70;99.90;;;;;;5084187;28;20452;-77
2021/04/08 05:03:35;;;;;;;;;;;1.80;99.90;;;;;;5077761;28;19920;-78
2021/04/08 05:06:01;;;;;;;;;;;1.80;99.90;;;;;;5078118;28;19920;-77
2021/04/08 05:08:26;;;;;;;;;;;1.70;99.90;;;;;;5077456;28;20269;-78
2021/04/08 05:10:54;;;;;;;;;;;1.80;99.90;;;;;;5079844;28;19931;-78
2021/04/08 05:13:20;;;;;;;;;;;1.80;99.90;;;;;;5079600;28;19921;-77
2021/04/08 05:15:45;;;;;;;;;;;1.80;99.90;;;;;;5080872;28;21859;-78
2021/04/08 05:18:11;;;;;;;;;;;1.80;99.90;;;;;;5079633;28;20424;-78
2021/04/08 05:20:36;;;;;;;;;;;1.90;99.90;;;;;;5081026;28;19928;-77
2021/04/08 05:23:04;;;;;;;;;;;1.90;99.90;;;;;;5077436;28;19916;-77
2021/04/08 05:25:32;;;;;;;;;;;2.00;99.90;;;;;;5075640;28;19974;-77
2021/04/08 05:27:57;;;;;;;;;;;2.00;99.90;;;;;;5078985;28;19916;-78
2021/04/08 05:30:23;;;;;;;;;;;2.00;99.90;;;;;;5078001;28;19920;-77
2021/04/08 05:32:49;;;;;;;;;;;2.00;99.90;;;;;;5075923;28;19950;-77
2021/04/08 05:35:14;;;;;;;;;;;2.00;99.90;;;;;;5074592;28;20273;-77
2021/04/08 05:37:42;;;;;;;;;;;2.00;99.90;;;;;;5076129;28;21836;-77
2021/04/08 05:40:10;;;;;;;;;;;2.10;99.90;;;;;;5076053;28;19962;-77
2021/04/08 05:42:36;;;;;;;;;;;2.10;99.90;;;;;;5092188;27;19974;-78
2021/04/08 05:45:02;;;;;;;;;;;2.10;99.90;;;;;;5075560;28;20342;-78
2021/04/08 05:47:27;;;;;;;;;;;2.10;99.90;;;;;;5076581;28;19916;-78
2021/04/08 05:49:53;;;;;;;;;;;2.20;99.90;;;;;;5075072;28;19930;-78
2021/04/08 05:52:20;;;;;;;;;;;2.20;99.90;;;;;;5077105;28;20002;-78
2021/04/08 05:54:46;;;;;;;;;;;2.20;99.90;;;;;;5076652;28;20050;-77
2021/04/08 05:57:12;;;;;;;;;;;2.30;99.90;;;;;;5075666;28;19916;-77
2021/04/08 05:59:40;;;;;;;;;;;2.20;99.90;;;;;;5075860;28;21797;-77
2021/04/08 06:02:05;;;;;;;;;;;2.30;99.90;;;;;;5074927;28;19925;-75
2021/04/08 06:04:31;;;;;;;;;;;2.30;99.90;;;;;;5089956;28;20325;-75
2021/04/08 06:07:02;;;;;;;;;;;2.30;99.90;;;;;;5076044;28;19920;-78
2021/04/08 06:09:28;;;;;;;;;;;2.40;99.90;;;;;;5090178;28;19917;-77
2021/04/08 06:11:53;;;;;;;;;;;2.40;99.90;;;;;;5091584;28;19970;-77
2021/04/08 06:14:19;;;;;;;;;;;2.40;99.90;;;;;;5088815;28;20281;-78
2021/04/08 06:16:45;;;;;;;;;;;2.50;99.90;;;;;;5094340;28;19919;-78
2021/04/08 06:19:10;;;;;;;;;;;2.50;99.90;;;;;;5087493;28;19934;-77
2021/04/08 06:21:41;;;;;;;;;;;2.50;99.90;;;;;;5092791;28;19927;-78
2021/04/08 06:24:08;;;;;;;;;;;2.60;99.90;;;;;;5090758;28;19916;-76
2021/04/08 06:26:36;;;;;;;;;;;2.70;99.90;;;;;;5089921;28;19941;-76
2021/04/08 06:29:02;;;;;;;;;;;2.70;99.90;;;;;;5090071;28;19990;-76
2021/04/08 06:31:30;;;;;;;;;;;2.70;99.90;;;;;;5120160;27;20050;-76
2021/04/08 06:33:55;;;;;;;;;;;2.70;99.90;;;;;;5089980;28;20013;-75
2021/04/08 06:36:24;;;;;;;;;;;2.70;99.90;;;;;;5087442;28;19939;-74
2021/04/08 06:38:50;;;;;;;;;;;2.70;99.60;;;;;;5088428;28;19936;-74
2021/04/08 06:41:16;;;;;;;;;;;2.70;99.90;;;;;;5090683;28;19923;-76
2021/04/08 06:43:41;;;;;;;;;;;2.70;99.90;;;;;;5090233;28;19935;-76
2021/04/08 06:46:07;;;;;;;;;;;2.70;99.90;;;;;;5087441;28;20362;-76
2021/04/08 06:48:37;;;;;;;;;;;2.80;99.90;;;;;;5086687;28;20086;-76
2021/04/08 06:51:07;;;;;;;;;;;2.80;99.90;;;;;;5085477;28;19916;-75
2021/04/08 06:53:33;;;;;;;;;;;2.80;98.20;;;;;;5096112;28;19956;-75
2021/04/08 06:55:58;;;;;;;;;;;2.80;98.80;;;;;;5072990;28;19911;-76
2021/04/08 06:58:24;;;;;;;;;;;2.90;99.90;;;;;;5106314;28;20041;-75
2021/04/08 07:00:49;;;;;;;;;;;2.90;98.40;;;;;;5102308;28;20002;-75
2021/04/08 07:03:15;;;;;;;;;;;2.90;99.90;;;;;;5086371;28;20052;-75
2021/04/08 07:05:40;;;;;;;;;;;2.90;98.70;;;;;;5078371;28;19920;-75
2021/04/08 07:08:06;;;;;;;;;;;3.00;99.90;;;;;;5090992;28;19923;-75
2021/04/08 07:10:31;;;;;;;;;;;3.00;99.90;;;;;;5086728;28;19916;-74
2021/04/08 07:12:59;;;;;;;;;;;3.10;99.90;;;;;;5073404;28;19927;-74
2021/04/08 07:15:25;;;;;;;;;;;3.20;99.90;;;;;;5087040;28;19954;-74
2021/04/08 07:17:50;;;;;;;;;;;3.20;99.40;;;;;;5093241;28;19948;-74
2021/04/08 07:20:16;;;;;;;;;;;3.10;95.90;;;;;;5089493;28;19970;-74
2021/04/08 07:22:44;;;;;;;;;;;3.20;98.40;;;;;;5093962;28;19920;-74
2021/04/08 07:25:13;;;;;;;;;;;3.30;99.50;;;;;;5086155;28;20011;-74
2021/04/08 07:27:43;;;;;;;;;;;3.30;97.80;;;;;;5092981;28;20004;-74
2021/04/08 07:30:09;;;;;;;;;;;3.40;97.20;;;;;;5093038;28;20392;-74
2021/04/08 07:32:35;;;;;;;;;;;3.40;98.20;;;;;;5093542;28;19927;-74
2021/04/08 07:35:11;;;;;;;;;;;3.50;96.70;;;;;;5094078;28;19934;-71
2021/04/08 07:37:36;;;;;;;;;;;3.60;99.70;;;;;;5091731;28;19919;-74
2021/04/08 07:40:06;;;;;;;;;;;3.70;97.00;;;;;;5089531;28;19978;-74
2021/04/08 07:42:31;;;;;;;;;;;3.80;96.90;;;;;;5091603;28;19912;-74
2021/04/08 07:44:58;;;;;;;;;;;3.70;95.40;;;;;;5100564;28;19916;-74
2021/04/08 07:47:27;;;;;;;;;;;3.80;96.70;;;;;;5094904;28;19973;-74
2021/04/08 07:49:56;;;;;;;;;;;3.70;94.90;;;;;;5074932;28;20393;-74
2021/04/08 07:52:25;;;;;;;;;;;3.80;94.30;;;;;;5094490;28;19912;-72
2021/04/08 07:54:57;;;;;;;;;;;3.80;93.20;;;;;;5100087;27;19916;-73
2021/04/08 07:57:23;;;;;;;;;;;3.90;93.50;;;;;;5093511;28;19921;-74
2021/04/08 07:59:51;;;;;;;;;;;3.80;93.10;;;;;;5090896;28;19927;-74
2021/04/08 08:02:19;;;;;;;;;;;3.80;92.30;;;;;;5091706;28;20599;-73
2021/04/08 08:04:47;;;;;;;;;;;3.70;91.10;;;;;;5090593;28;19935;-74
2021/04/08 08:07:29;;;;;;;;;;;3.90;92.50;;;;;;5091320;28;19981;-74
2021/04/08 08:09:55;;;;;;;;;;;3.90;91.90;;;;;;5092016;28;19920;-74
2021/04/08 08:12:23;;;;;;;;;;;4.10;92.70;;;;;;5098041;28;19917;-73
2021/04/08 08:14:52;;;;;;;;;;;4.10;89.60;;;;;;5091576;28;19928;-73
2021/04/08 08:17:19;;;;;;;;;;;4.20;89.00;;;;;;5089892;28;19930;-74
2021/04/08 08:19:45;;;;;;;;;;;4.10;90.00;;;;;;5094117;28;19920;-74
2021/04/08 08:22:20;;;;;;;;;;;4.20;88.50;;;;;;5093818;28;19920;-71
2021/04/08 08:24:52;;;;;;;;;;;4.30;90.10;;;;;;5095562;28;19912;-73
2021/04/08 08:27:18;;;;;;;;;;;4.40;90.10;;;;;;5093767;28;20363;-73
2021/04/08 08:29:43;;;;;;;;;;;4.30;86.50;;;;;;5075514;28;19917;-73
2021/04/08 08:32:11;;;;;;;;;;;4.50;87.80;;;;;;5090482;28;19916;-73
2021/04/08 08:34:40;;;;;;;;;;;4.60;87.80;;;;;;5091444;28;20483;-73
2021/04/08 08:37:08;;;;;;;;;;;4.70;85.50;;;;;;5092059;28;19931;-73
2021/04/08 08:39:41;;;;;;;;;;;4.80;81.80;;;;;;5088459;28;20002;-72
2021/04/08 08:42:08;;;;;;;;;;;4.80;84.10;;;;;;5097619;27;19942;-73
2021/04/08 08:44:34;;;;;;;;;;;5.00;83.90;;;;;;5092399;28;19912;-73
2021/04/08 08:47:00;;;;;;;;;;;5.00;78.80;;;;;;5075692;28;20361;-73
2021/04/08 08:49:27;;;;;;;;;;;5.00;78.40;;;;;;5088207;28;19973;-73
2021/04/08 08:51:54;;;;;;;;;;;5.20;84.60;;;;;;5085753;28;19916;-73
2021/04/08 08:54:19;;;;;;;;;;;5.50;82.70;;;;;;5076932;28;19916;-73
2021/04/08 08:56:45;;;;;;;;;;;5.50;78.80;;;;;;5092259;28;19922;-74
2021/04/08 08:59:10;;;;;;;;;;;5.30;75.50;;;;;;5091155;28;19920;-73
2021/04/08 09:01:39;;;;;;;;;;;5.20;72.70;;;;;;5092815;28;19924;-73
2021/04/08 09:04:05;;;;;;;;;;;5.30;77.40;;;;;;5104774;27;19912;-73
2021/04/08 09:06:30;;;;;;;;;;;5.20;75.40;;;;;;5093276;28;19925;-73
2021/04/08 09:09:05;;;;;;;;;;;5.10;72.90;;;;;;5090108;28;19916;-73
2021/04/08 09:11:33;;;;;;;;;;;5.20;75.10;;;;;;5088915;28;19951;-73
2021/04/08 09:13:59;;;;;;;;;;;5.20;72.70;;;;;;5085865;28;19922;-73
2021/04/08 09:16:24;;;;;;;;;;;5.20;72.40;;;;;;5088546;28;19920;-73
2021/04/08 09:18:57;;;;;;;;;;;5.20;73.70;;;;;;5091739;28;19919;-73
2021/04/08 09:21:25;;;;;;;;;;;5.40;74.90;;;;;;5094260;28;19960;-73
2021/04/08 09:24:09;;;;;;;;;;;5.40;72.30;;;;;;5091234;28;19987;-73
2021/04/08 09:26:41;;;;;;;;;;;5.30;71.30;;;;;;5093345;28;20413;-73
2021/04/08 09:29:08;;;;;;;;;;;5.20;69.90;;;;;;5093925;28;19916;-73
2021/04/08 09:31:36;;;;;;;;;;;5.20;71.20;;;;;;5091166;28;19917;-73
2021/04/08 09:34:03;;;;;;;;;;;5.30;74.80;;;;;;5090332;28;19930;-73
2021/04/08 09:36:38;;;;;;;;;;;5.20;72.50;;;;;;5078705;28;19916;-73
2021/04/08 09:39:03;;;;;;;;;;;5.20;72.10;;;;;;5089864;28;20567;-73
2021/04/08 09:42:02;;;;;;;;;;;5.20;70.90;;;;;;5090411;28;20007;-73
2021/04/08 09:44:30;;;;;;;;;;;5.20;71.80;;;;;;5084120;28;19927;-73
2021/04/08 09:47:00;;;;;;;;;;;5.20;72.20;;;;;;5096361;28;19912;-73
2021/04/08 09:49:37;;;;;;;;;;;5.10;71.50;;;;;;5088984;28;19950;-73
2021/04/08 09:52:05;;;;;;;;;;;5.10;73.90;;;;;;5094768;28;19912;-73
2021/04/08 09:54:40;;;;;;;;;;;5.20;72.40;;;;;;5090603;28;19920;-73
2021/04/08 09:57:06;;;;;;;;;;;5.20;73.70;;;;;;5088404;28;19916;-72
2021/04/08 09:59:32;;;;;;;;;;;5.20;73.20;;;;;;5089319;28;20292;-72
2021/04/08 10:01:58;;;;;;;;;;;5.10;71.80;;;;;;5084145;28;19916;-72
2021/04/08 10:04:24;;;;;;;;;;;5.10;72.90;;;;;;5090635;28;19922;-73
2021/04/08 10:07:00;;;;;;;;;;;5.10;75.50;;;;;;5088300;28;20330;-73
2021/04/08 10:09:25;;;;;;;;;;;5.10;75.70;;;;;;5076484;28;19974;-73
2021/04/08 10:11:52;;;;;;;;;;;5.00;71.90;;;;;;5093046;28;19916;-73
2021/04/08 10:14:21;;;;;;;;;;;5.00;73.80;;;;;;5086311;28;19923;-72
2021/04/08 10:17:02;;;;;;;;;;;5.10;76.30;;;;;;5088519;28;19920;-73
2021/04/08 10:19:29;;;;;;;;;;;5.10;74.70;;;;;;5090179;28;19920;-73
2021/04/08 10:21:54;;;;;;;;;;;5.10;74.80;;;;;;5090198;28;20369;-73
2021/04/08 10:24:22;;;;;;;;;;;5.20;74.70;;;;;;5091217;28;19916;-73
2021/04/08 10:26:48;;;;;;;;;;;5.30;74.70;;;;;;5091092;28;19912;-73
2021/04/08 10:29:13;;;;;;;;;;;5.30;72.90;;;;;;5094383;28;20509;-73
2021/04/08 10:31:42;;;;;;;;;;;5.30;71.10;;;;;;5091997;28;20020;-73
2021/04/08 10:34:11;;;;;;;;;;;5.40;72.70;;;;;;5087429;28;19921;-74
2021/04/08 10:36:37;;;;;;;;;;;5.60;74.80;;;;;;5075470;28;19916;-73
2021/04/08 10:39:15;;;;;;;;;;;5.60;72.80;;;;;;5093746;28;19930;-73
2021/04/08 10:41:57;;;;;;;;;;;5.80;69.40;;;;;;5125687;27;19939;-73
2021/04/08 10:44:22;;;;;;;;;;;5.90;68.40;;;;;;5087184;28;19927;-71
2021/04/08 10:46:48;;;;;;;;;;;5.90;65.20;;;;;;5089845;28;19912;-71
2021/04/08 10:49:26;;;;;;;;;;;5.90;63.90;;;;;;5089710;28;19927;-72
2021/04/08 10:51:52;;;;;;;;;;;6.00;65.70;;;;;;5074737;28;20334;-72
2021/04/08 10:54:20;;;;;;;;;;;5.90;65.00;;;;;;5093409;28;19920;-72
2021/04/08 10:56:46;;;;;;;;;;;6.00;64.10;;;;;;5075074;28;19912;-72
2021/04/08 10:59:24;;;;;;;;;;;5.90;63.60;;;;;;5091876;28;19934;-72
2021/04/08 11:01:49;;;;;;;;;;;5.90;65.80;;;;;;5090473;28;19920;-72
2021/04/08 11:04:15;;;;;;;;;;;5.80;64.50;;;;;;5087993;28;19915;-71
2021/04/08 11:06:41;;;;;;;;;;;5.80;63.70;;;;;;5093549;28;19913;-71
2021/04/08 11:09:07;;;;;;;;;;;5.70;61.60;;;;;;5094382;28;19912;-72
2021/04/08 11:11:35;;;;;;;;;;;5.60;61.20;;;;;;5097747;28;19927;-72
2021/04/08 11:14:03;;;;;;;;;;;5.70;65.50;;;;;;5096663;27;19916;-71
2021/04/08 11:16:29;;;;;;;;;;;5.80;63.50;;;;;;5096032;28;20450;-72
2021/04/08 11:18:56;;;;;;;;;;;5.70;66.40;;;;;;5091476;28;20008;-72
2021/04/08 11:21:23;;;;;;;;;;;5.80;67.00;;;;;;5091246;28;20011;-72
2021/04/08 11:23:49;;;;;;;;;;;5.90;66.50;;;;;;5095688;28;19922;-71
2021/04/08 11:26:14;;;;;;;;;;;5.90;64.30;;;;;;5078085;28;20042;-72
2021/04/08 11:28:43;;;;;;;;;;;6.10;66.50;;;;;;5090958;28;19970;-72
2021/04/08 11:31:12;;;;;;;;;;;6.50;68.40;;;;;;5095460;28;19926;-72
2021/04/08 11:33:38;;;;;;;;;;;6.70;63.00;;;;;;5106833;27;19912;-72
2021/04/08 11:36:04;;;;;;;;;;;6.60;60.30;;;;;;5092933;28;19912;-71
2021/04/08 11:38:34;;;;;;;;;;;6.70;60.50;;;;;;5094160;28;20015;-72
2021/04/08 11:41:00;;;;;;;;;;;6.60;62.80;;;;;;5095175;28;19920;-72
2021/04/08 11:43:32;;;;;;;;;;;6.80;62.70;;;;;;5093904;28;19926;-72
2021/04/08 11:46:02;;;;;;;;;;;7.00;63.60;;;;;;5101480;28;19963;-70
2021/04/08 11:48:40;;;;;;;;;;;7.10;59.90;;;;;;5092182;28;19912;-71
2021/04/08 11:51:06;;;;;;;;;;;7.10;61.00;;;;;;5094459;28;19920;-71
2021/04/08 11:53:33;;;;;;;;;;;7.00;57.40;;;;;;5091414;28;19943;-71
2021/04/08 11:56:01;;;;;;;;;;;7.00;59.30;;;;;;5091645;27;19958;-72
2021/04/08 11:58:27;;;;;;;;;;;7.00;58.70;;;;;;5090748;28;19974;-71
2021/04/08 12:00:55;;;;;;;;;;;7.00;57.40;;;;;;5096547;28;19913;-72
2021/04/08 12:03:21;;;;;;;;;;;7.20;56.70;;;;;;5086080;28;19919;-71
2021/04/08 12:05:47;;;;;;;;;;;7.30;58.10;;;;;;5095785;28;19959;-72
2021/04/08 12:08:13;;;;;;;;;;;7.30;59.60;;;;;;5087940;28;19962;-73
2021/04/08 12:10:38;;;;;;;;;;;7.20;55.30;;;;;;5092843;28;19911;-72
2021/04/08 12:13:07;;;;;;;;;;;7.30;57.30;;;;;;5091690;28;19920;-71
2021/04/08 12:15:33;;;;;;;;;;;7.40;58.00;;;;;;5088788;28;20353;-73
2021/04/08 12:17:59;;;;;;;;;;;7.30;57.20;;;;;;5094533;28;19998;-73
2021/04/08 12:20:25;;;;;;;;;;;7.30;59.70;;;;;;5092251;28;19931;-74
2021/04/08 12:22:52;;;;;;;;;;;7.40;59.60;;;;;;5091164;28;20385;-74
2021/04/08 12:25:18;;;;;;;;;;;7.60;61.10;;;;;;5095279;28;19923;-73
2021/04/08 12:27:44;;;;;;;;;;;7.60;58.00;;;;;;5093415;28;20533;-73
2021/04/08 12:30:10;;;;;;;;;;;7.40;56.10;;;;;;5104355;27;20389;-73
2021/04/08 12:32:35;;;;;;;;;;;7.40;56.20;;;;;;5090771;28;19945;-73
2021/04/08 12:35:01;;;;;;;;;;;7.40;58.20;;;;;;5087456;28;19924;-73
2021/04/08 12:37:26;;;;;;;;;;;7.50;59.90;;;;;;5084455;28;19965;-74
2021/04/08 12:39:55;;;;;;;;;;;7.70;58.50;;;;;;5087434;28;19923;-73
2021/04/08 12:42:20;;;;;;;;;;;7.50;55.10;;;;;;5103332;27;20396;-74
2021/04/08 12:44:48;;;;;;;;;;;7.60;58.00;;;;;;5108222;27;19916;-74
2021/04/08 12:47:19;;;;;;;;;;;7.80;57.30;;;;;;5091869;28;20058;-74
2021/04/08 12:49:44;;;;;;;;;;;8.10;58.10;;;;;;5098201;27;19951;-73
2021/04/08 12:52:10;;;;;;;;;;;8.10;58.20;;;;;;5088708;28;19916;-73
2021/04/08 12:54:35;;;;;;;;;;;8.20;59.70;;;;;;5088557;28;19931;-73
2021/04/08 12:57:01;;;;;;;;;;;8.20;57.20;;;;;;5092239;28;19927;-73
2021/04/08 12:59:27;;;;;;;;;;;8.10;55.70;;;;;;5088069;28;19928;-73
2021/04/08 13:01:55;;;;;;;;;;;8.10;56.90;;;;;;5092177;28;19923;-73
2021/04/08 13:04:23;;;;;;;;;;;7.90;57.10;;;;;;5091273;28;19998;-73
2021/04/08 13:06:49;;;;;;;;;;;7.90;59.60;;;;;;5093090;28;19915;-73
2021/04/08 13:09:17;;;;;;;;;;;8.00;58.00;;;;;;5091028;28;19946;-73
2021/04/08 13:11:43;;;;;;;;;;;8.10;59.30;;;;;;5087114;28;20422;-73
2021/04/08 13:14:08;;;;;;;;;;;8.60;61.50;;;;;;5090998;28;19920;-73
2021/04/08 13:16:34;;;;;;;;;;;8.60;58.90;;;;;;5085516;28;20477;-73
2021/04/08 13:19:02;;;;;;;;;;;8.60;57.20;;;;;;5090396;28;20303;-73
2021/04/08 13:21:28;;;;;;;;;;;8.50;57.20;;;;;;5091011;28;20099;-73
2021/04/08 13:23:54;;;;;;;;;;;8.60;57.10;;;;;;5109518;27;20465;-73
2021/04/08 13:26:22;;;;;;;;;;;8.50;56.10;;;;;;5079350;28;19927;-73
2021/04/08 13:28:47;;;;;;;;;;;8.60;57.30;;;;;;5094162;28;19915;-73
2021/04/08 13:31:15;;;;;;;;;;;8.70;56.80;;;;;;5092559;28;19920;-73
2021/04/08 13:33:41;;;;;;;;;;;8.60;55.00;;;;;;5095854;28;19976;-73
2021/04/08 13:36:07;;;;;;;;;;;8.50;56.10;;;;;;5088970;28;20003;-73
2021/04/08 13:38:35;;;;;;;;;;;8.30;55.80;;;;;;5090320;28;19962;-73
2021/04/08 13:41:00;;;;;;;;;;;8.10;55.40;;;;;;5092738;28;20295;-73
2021/04/08 13:43:26;;;;;;;;;;;8.10;56.50;;;;;;5087514;28;19916;-74
2021/04/08 13:45:52;;;;;;;;;;;8.00;56.30;;;;;;5090952;28;19916;-73
2021/04/08 13:48:17;;;;;;;;;;;8.00;56.80;;;;;;5090999;28;19919;-73
2021/04/08 13:50:43;;;;;;;;;;;7.90;56.40;;;;;;5089148;28;20345;-73
2021/04/08 13:53:13;;;;;;;;;;;8.00;55.30;;;;;;5092425;28;19930;-74
2021/04/08 13:55:39;;;;;;;;;;;8.00;54.20;;;;;;5090663;28;19920;-73
2021/04/08 13:58:04;;;;;;;;;;;8.10;56.20;;;;;;5086796;28;20467;-73
2021/04/08 14:00:30;;;;;;;;;;;8.20;56.00;;;;;;5086661;28;19920;-73
2021/04/08 14:02:55;;;;;;;;;;;8.10;56.20;;;;;;5095438;28;19912;-73
2021/04/08 14:05:21;;;;;;;;;;;8.10;56.70;;;;;;5090855;28;21816;-73
2021/04/08 14:07:47;;;;;;;;;;;8.20;55.40;;;;;;5092270;28;19920;-73
2021/04/08 14:10:13;;;;;;;;;;;8.20;56.10;;;;;;5087984;28;19919;-73
2021/04/08 14:12:39;;;;;;;;;;;8.30;57.80;;;;;;5092500;28;19923;-73
2021/04/08 14:15:05;;;;;;;;;;;8.40;57.60;;;;;;5091571;28;19972;-73
2021/04/08 14:17:30;;;;;;;;;;;8.30;55.80;;;;;;5088607;28;19931;-73
2021/04/08 14:19:56;;;;;;;;;;;8.30;55.70;;;;;;5088966;28;19920;-73
2021/04/08 14:22:21;;;;;;;;;;;8.40;58.10;;;;;;5089291;28;19920;-74
2021/04/08 14:24:47;;;;;;;;;;;8.40;54.80;;;;;;5084591;28;19923;-73
2021/04/08 14:27:13;;;;;;;;;;;8.30;55.60;;;;;;5087393;28;20574;-73
2021/04/08 14:29:38;;;;;;;;;;;8.30;54.40;;;;;;5090251;28;19930;-73
2021/04/08 14:32:05;;;;;;;;;;;8.40;57.60;;;;;;5088242;28;19931;-73